Time;durP1;ratioP1;P1;durP2;ratioP2;P2;SDS_P1;SDS_P2;PMS_P1;PMS_P2;Temp;Humidity;BMP_temperature;BMP_pressure;BME280_temperature;BME280_humidity;BME280_pressure;Samples;Min_cycle;Max_cycle;Signal;HPM_P1;HPM_P2
2022/08/31 00:03:59;;;;;;;4.03;1.67;;;;;;;;;;4985627;28;20129;-70
2022/08/31 00:06:26;;;;;;;2.72;0.98;;;;;;;;;;4971751;28;20033;-70
2022/08/31 00:08:52;;;;;;;2.40;0.90;;;;;;;;;;4982755;28;20152;-69
2022/08/31 00:11:26;;;;;;;2.42;1.13;;;;;;;;;;4971273;28;20031;-70
2022/08/31 00:13:53;;;;;;;3.00;1.20;;;;;;;;;;4974955;28;20023;-70
2022/08/31 00:16:19;;;;;;;3.22;1.05;;;;;;;;;;4987473;28;20034;-70
2022/08/31 00:18:45;;;;;;;5.45;1.88;;;;;;;;;;4985941;28;20022;-70
2022/08/31 00:21:12;;;;;;;3.50;1.40;;;;;;;;;;4980363;28;20034;-71
2022/08/31 00:23:38;;;;;;;3.33;1.30;;;;;;;;;;4981027;28;20025;-69
2022/08/31 00:26:04;;;;;;;5.10;1.58;;;;;;;;;;4982577;28;20038;-69
2022/08/31 00:28:31;;;;;;;3.35;1.70;;;;;;;;;;4985493;28;20083;-70
2022/08/31 00:30:57;;;;;;;4.18;1.20;;;;;;;;;;4962751;28;20027;-69
2022/08/31 00:33:24;;;;;;;6.22;1.42;;;;;;;;;;4971704;28;20022;-70
2022/08/31 00:35:50;;;;;;;3.28;1.10;;;;;;;;;;4978830;28;20027;-71
2022/08/31 00:38:16;;;;;;;4.32;1.10;;;;;;;;;;4970723;28;20074;-70
2022/08/31 00:40:43;;;;;;;3.58;1.27;;;;;;;;;;4978610;28;20018;-69
2022/08/31 00:43:09;;;;;;;2.97;1.42;;;;;;;;;;4989749;28;20033;-70
2022/08/31 00:45:35;;;;;;;4.10;0.85;;;;;;;;;;4976682;28;20066;-70
2022/08/31 00:48:01;;;;;;;3.25;1.38;;;;;;;;;;4989082;28;20136;-70
2022/08/31 00:50:28;;;;;;;4.72;1.30;;;;;;;;;;4973583;28;20065;-70
2022/08/31 00:52:56;;;;;;;2.38;1.20;;;;;;;;;;4989468;28;20022;-70
2022/08/31 00:55:24;;;;;;;2.90;1.25;;;;;;;;;;4978998;28;20490;-70
2022/08/31 00:57:52;;;;;;;4.68;1.20;;;;;;;;;;4987527;28;20109;-69
2022/08/31 01:00:20;;;;;;;3.78;1.83;;;;;;;;;;4987922;28;20049;-71
2022/08/31 01:02:46;;;;;;;3.75;1.33;;;;;;;;;;4973137;28;20033;-70
2022/08/31 01:05:13;;;;;;;3.28;1.33;;;;;;;;;;4976287;28;20120;-71
2022/08/31 01:07:40;;;;;;;3.80;1.05;;;;;;;;;;4977859;28;20061;-70
2022/08/31 01:10:07;;;;;;;3.22;1.45;;;;;;;;;;4985084;28;20030;-71
2022/08/31 01:12:34;;;;;;;3.17;1.50;;;;;;;;;;4980849;28;20084;-69
2022/08/31 01:15:01;;;;;;;3.85;1.15;;;;;;;;;;4980833;28;20061;-71
2022/08/31 01:17:27;;;;;;;2.58;1.25;;;;;;;;;;4972480;28;20484;-70
2022/08/31 01:19:58;;;;;;;2.47;1.15;;;;;;;;;;4971806;28;20041;-69
2022/08/31 01:22:41;;;;;;;4.53;1.60;;;;;;;;;;4977994;28;20578;-70
2022/08/31 01:25:07;;;;;;;3.33;1.25;;;;;;;;;;4987429;28;20070;-69
2022/08/31 01:27:34;;;;;;;3.50;1.38;;;;;;;;;;4977885;28;20030;-70
2022/08/31 01:30:03;;;;;;;3.33;1.13;;;;;;;;;;4987570;28;20034;-70
2022/08/31 01:32:29;;;;;;;6.65;2.30;;;;;;;;;;4985349;28;20050;-70
2022/08/31 01:34:56;;;;;;;5.03;0.93;;;;;;;;;;4986742;28;20041;-70
2022/08/31 01:37:22;;;;;;;3.92;1.48;;;;;;;;;;4973592;28;20050;-71
2022/08/31 01:39:49;;;;;;;1.88;1.00;;;;;;;;;;4969384;28;20027;-70
2022/08/31 01:42:15;;;;;;;2.92;1.00;;;;;;;;;;4981518;28;20026;-70
2022/08/31 01:44:41;;;;;;;3.22;1.23;;;;;;;;;;4969551;28;20027;-70
2022/08/31 01:47:07;;;;;;;3.00;1.38;;;;;;;;;;4979462;28;20518;-70
2022/08/31 01:49:33;;;;;;;3.30;1.33;;;;;;;;;;4971840;28;20073;-70
2022/08/31 01:51:59;;;;;;;3.00;1.23;;;;;;;;;;4973422;28;20031;-70
2022/08/31 01:54:26;;;;;;;2.15;0.80;;;;;;;;;;4984959;28;20034;-69
2022/08/31 01:56:53;;;;;;;3.58;1.60;;;;;;;;;;4984846;28;20045;-70
2022/08/31 01:59:21;;;;;;;2.85;1.35;;;;;;;;;;4975574;28;20038;-69
2022/08/31 02:01:50;;;;;;;4.57;1.50;;;;;;;;;;4972760;28;20070;-70
2022/08/31 02:04:18;;;;;;;4.05;1.00;;;;;;;;;;4976613;28;20031;-69
2022/08/31 02:06:46;;;;;;;3.25;1.05;;;;;;;;;;4973234;28;20041;-69
2022/08/31 02:09:13;;;;;;;12.40;1.00;;;;;;;;;;4983673;28;20050;-70
2022/08/31 02:11:39;;;;;;;2.47;0.95;;;;;;;;;;4986708;28;20504;-69
2022/08/31 02:14:05;;;;;;;2.78;1.00;;;;;;;;;;4977943;28;20018;-70
2022/08/31 02:16:32;;;;;;;2.47;1.13;;;;;;;;;;4987872;28;20022;-70
2022/08/31 02:18:58;;;;;;;3.53;1.10;;;;;;;;;;4977596;28;20073;-70
2022/08/31 02:21:24;;;;;;;4.32;1.67;;;;;;;;;;4988724;28;20045;-70
2022/08/31 02:23:50;;;;;;;2.92;1.05;;;;;;;;;;4976922;28;20078;-70
2022/08/31 02:26:16;;;;;;;3.72;1.20;;;;;;;;;;4991725;28;20030;-69
2022/08/31 02:28:42;;;;;;;2.58;0.90;;;;;;;;;;4962653;28;20030;-69
2022/08/31 02:31:09;;;;;;;2.67;0.90;;;;;;;;;;4986947;28;20019;-70
2022/08/31 02:33:36;;;;;;;3.63;1.40;;;;;;;;;;4982344;28;20034;-70
2022/08/31 02:36:02;;;;;;;2.60;1.15;;;;;;;;;;4968069;28;20026;-71
2022/08/31 02:38:28;;;;;;;2.67;1.30;;;;;;;;;;4991896;28;20030;-69
2022/08/31 02:40:54;;;;;;;3.45;0.90;;;;;;;;;;4978626;28;20027;-70
2022/08/31 02:43:21;;;;;;;2.53;1.00;;;;;;;;;;4978592;28;20030;-70
2022/08/31 02:45:47;;;;;;;5.18;1.45;;;;;;;;;;4979514;28;20097;-69
2022/08/31 02:48:14;;;;;;;2.90;0.90;;;;;;;;;;4974649;28;20148;-69
2022/08/31 02:50:45;;;;;;;3.45;1.83;;;;;;;;;;4981636;28;20041;-69
2022/08/31 02:53:12;;;;;;;2.78;1.23;;;;;;;;;;4975875;28;20101;-70
2022/08/31 02:55:39;;;;;;;4.97;1.80;;;;;;;;;;4980687;28;20050;-70
2022/08/31 02:58:06;;;;;;;1.98;1.10;;;;;;;;;;4989674;28;20054;-70
2022/08/31 03:00:33;;;;;;;5.10;1.25;;;;;;;;;;4984359;28;20762;-71
2022/08/31 03:02:59;;;;;;;2.65;0.95;;;;;;;;;;4972734;28;20100;-70
2022/08/31 03:05:25;;;;;;;5.30;0.93;;;;;;;;;;4982853;28;20465;-70
2022/08/31 03:07:51;;;;;;;2.90;1.15;;;;;;;;;;4974223;28;20432;-71
2022/08/31 03:10:20;;;;;;;1.90;0.90;;;;;;;;;;4978326;28;20500;-71
2022/08/31 03:12:47;;;;;;;3.25;1.55;;;;;;;;;;4971702;28;20069;-70
2022/08/31 03:15:13;;;;;;;2.92;1.40;;;;;;;;;;4982651;28;20726;-71
2022/08/31 03:17:39;;;;;;;3.17;1.40;;;;;;;;;;4971962;28;20054;-71
2022/08/31 03:20:06;;;;;;;3.33;0.93;;;;;;;;;;4981274;28;20018;-71
2022/08/31 03:22:32;;;;;;;3.15;1.50;;;;;;;;;;4974231;28;20087;-70
2022/08/31 03:24:59;;;;;;;4.85;1.67;;;;;;;;;;4978738;28;20057;-70
2022/08/31 03:27:25;;;;;;;3.47;1.33;;;;;;;;;;4976735;28;20492;-71
2022/08/31 03:29:52;;;;;;;3.60;1.10;;;;;;;;;;4975896;28;20026;-70
2022/08/31 03:32:18;;;;;;;2.75;0.93;;;;;;;;;;4979441;28;20033;-70
2022/08/31 03:34:44;;;;;;;3.10;1.25;;;;;;;;;;4975415;28;20022;-70
2022/08/31 03:37:11;;;;;;;3.15;1.20;;;;;;;;;;4990777;28;20092;-70
2022/08/31 03:39:37;;;;;;;1.98;1.00;;;;;;;;;;4987838;28;20018;-70
2022/08/31 03:42:05;;;;;;;2.60;1.08;;;;;;;;;;4982208;28;20019;-69
2022/08/31 03:44:31;;;;;;;2.55;1.20;;;;;;;;;;4972415;28;20042;-71
2022/08/31 03:46:58;;;;;;;3.03;1.42;;;;;;;;;;4981578;28;20050;-69
2022/08/31 03:49:24;;;;;;;6.07;1.30;;;;;;;;;;4971263;28;20534;-69
2022/08/31 03:51:51;;;;;;;2.42;1.05;;;;;;;;;;4983038;28;20093;-70
2022/08/31 03:54:17;;;;;;;3.90;1.20;;;;;;;;;;4971495;28;20027;-70
2022/08/31 03:56:45;;;;;;;3.13;1.00;;;;;;;;;;4974373;28;20397;-69
2022/08/31 03:59:11;;;;;;;3.55;1.27;;;;;;;;;;4981693;28;20073;-69
2022/08/31 04:01:37;;;;;;;1.95;0.90;;;;;;;;;;4977386;28;20026;-72
2022/08/31 04:04:03;;;;;;;2.88;1.23;;;;;;;;;;4989119;28;20164;-70
2022/08/31 04:06:30;;;;;;;2.67;1.17;;;;;;;;;;4986363;28;20114;-70
2022/08/31 04:08:56;;;;;;;2.53;1.40;;;;;;;;;;4985173;28;20058;-70
2022/08/31 04:11:22;;;;;;;1.52;0.90;;;;;;;;;;4984557;28;20019;-70
2022/08/31 04:13:48;;;;;;;3.22;1.00;;;;;;;;;;4983671;28;20030;-70
2022/08/31 04:16:16;;;;;;;2.15;1.23;;;;;;;;;;4985741;28;20057;-71
2022/08/31 04:18:43;;;;;;;3.88;0.98;;;;;;;;;;4979052;28;20034;-71
2022/08/31 04:21:13;;;;;;;2.25;0.90;;;;;;;;;;4971899;28;20026;-71
2022/08/31 04:23:39;;;;;;;;;;;;;;;;;;4980432;28;20116;-70
2022/08/31 04:26:14;;;;;;;1.70;0.75;;;;;;;;;;4974091;28;19956;-70
2022/08/31 04:28:41;;;;;;;2.00;0.85;;;;;;;;;;4978964;28;20137;-71
2022/08/31 04:31:07;;;;;;;1.85;0.90;;;;;;;;;;4988477;28;20029;-71
2022/08/31 04:33:35;;;;;;;2.80;0.93;;;;;;;;;;4963283;28;20097;-70
2022/08/31 04:36:04;;;;;;;3.33;1.00;;;;;;;;;;4981287;28;20037;-69
2022/08/31 04:38:30;;;;;;;2.47;0.90;;;;;;;;;;4974934;28;20030;-70
2022/08/31 04:40:56;;;;;;;4.30;1.02;;;;;;;;;;4970278;28;20110;-70
2022/08/31 04:43:23;;;;;;;2.10;0.95;;;;;;;;;;4982433;28;20089;-70
2022/08/31 04:45:50;;;;;;;2.05;0.98;;;;;;;;;;4974556;28;20031;-70
2022/08/31 04:48:16;;;;;;;4.82;0.90;;;;;;;;;;4977395;28;20446;-69
2022/08/31 04:50:43;;;;;;;2.35;1.17;;;;;;;;;;4988693;28;20409;-69
2022/08/31 04:53:09;;;;;;;2.90;1.33;;;;;;;;;;4980379;28;20034;-69
2022/08/31 04:55:38;;;;;;;1.27;0.75;;;;;;;;;;4969812;28;20105;-67
2022/08/31 04:58:05;;;;;;;2.35;0.93;;;;;;;;;;4977038;28;20022;-71
2022/08/31 05:00:31;;;;;;;2.38;0.90;;;;;;;;;;4976964;28;20023;-71
2022/08/31 05:02:57;;;;;;;1.88;0.95;;;;;;;;;;4989332;28;20026;-69
2022/08/31 05:05:23;;;;;;;1.63;0.70;;;;;;;;;;4990481;28;20117;-71
2022/08/31 05:07:50;;;;;;;1.40;0.75;;;;;;;;;;4990170;28;20097;-68
2022/08/31 05:10:16;;;;;;;3.97;0.85;;;;;;;;;;4990474;28;20026;-70
2022/08/31 05:12:43;;;;;;;3.25;0.80;;;;;;;;;;4980879;28;20544;-70
2022/08/31 05:15:09;;;;;;;3.70;0.68;;;;;;;;;;4977333;28;20054;-70
2022/08/31 05:17:35;;;;;;;1.80;0.75;;;;;;;;;;4987539;28;20027;-73
2022/08/31 05:20:01;;;;;;;2.00;0.70;;;;;;;;;;4977922;28;20030;-71
2022/08/31 05:22:29;;;;;;;1.80;0.70;;;;;;;;;;4983433;28;20473;-68
2022/08/31 05:24:55;;;;;;;3.80;1.10;;;;;;;;;;4964542;28;20129;-69
2022/08/31 05:27:21;;;;;;;2.63;0.75;;;;;;;;;;4969555;28;20066;-70
2022/08/31 05:29:47;;;;;;;2.25;1.02;;;;;;;;;;4982040;28;20041;-71
2022/08/31 05:32:13;;;;;;;1.17;0.55;;;;;;;;;;4978570;28;20019;-70
2022/08/31 05:34:39;;;;;;;1.52;0.65;;;;;;;;;;4978407;28;20040;-70
2022/08/31 05:37:05;;;;;;;2.28;0.80;;;;;;;;;;4959721;28;20054;-71
2022/08/31 05:39:32;;;;;;;3.58;0.80;;;;;;;;;;4975862;28;20030;-71
2022/08/31 05:41:58;;;;;;;2.00;0.88;;;;;;;;;;4984434;28;20088;-71
2022/08/31 05:44:25;;;;;;;2.85;0.80;;;;;;;;;;4978449;28;20047;-72
2022/08/31 05:46:51;;;;;;;1.17;0.60;;;;;;;;;;4981746;28;20026;-72
2022/08/31 05:49:17;;;;;;;2.20;0.60;;;;;;;;;;4982863;28;20401;-72
2022/08/31 05:51:44;;;;;;;2.03;0.85;;;;;;;;;;4978257;28;20060;-72
2022/08/31 05:54:10;;;;;;;2.05;0.75;;;;;;;;;;4980940;28;20122;-71
2022/08/31 05:56:37;;;;;;;2.92;0.68;;;;;;;;;;4981070;28;20033;-71
2022/08/31 05:59:03;;;;;;;3.83;0.80;;;;;;;;;;4972260;28;20027;-72
2022/08/31 06:01:31;;;;;;;1.52;0.65;;;;;;;;;;4984202;28;20393;-71
2022/08/31 06:03:59;;;;;;;2.58;0.70;;;;;;;;;;4972966;28;20051;-72
2022/08/31 06:06:25;;;;;;;4.47;1.50;;;;;;;;;;4985193;28;20027;-72
2022/08/31 06:08:52;;;;;;;2.83;0.80;;;;;;;;;;4982175;28;20026;-73
2022/08/31 06:11:19;;;;;;;4.57;1.23;;;;;;;;;;4986159;28;20029;-71
2022/08/31 06:13:46;;;;;;;2.42;0.80;;;;;;;;;;4979043;28;20073;-71
2022/08/31 06:16:13;;;;;;;1.60;0.75;;;;;;;;;;4988857;28;20057;-71
2022/08/31 06:18:49;;;;;;;1.95;0.68;;;;;;;;;;4985983;28;20404;-72
2022/08/31 06:21:17;;;;;;;4.00;0.82;;;;;;;;;;4987544;28;20022;-72
2022/08/31 06:23:43;;;;;;;3.97;1.08;;;;;;;;;;4983622;28;20034;-72
2022/08/31 06:26:11;;;;;;;3.65;0.75;;;;;;;;;;4983578;28;20033;-73
2022/08/31 06:28:38;;;;;;;2.53;0.73;;;;;;;;;;4988644;28;20034;-76
2022/08/31 06:31:10;;;;;;;3.35;0.80;;;;;;;;;;4963156;28;20521;-72
2022/08/31 06:33:37;;;;;;;2.45;0.80;;;;;;;;;;4982193;28;20034;-71
2022/08/31 06:36:03;;;;;;;2.80;0.77;;;;;;;;;;4967701;28;20572;-71
2022/08/31 06:38:29;;;;;;;2.33;0.98;;;;;;;;;;4980283;28;20492;-71
2022/08/31 06:40:55;;;;;;;4.38;0.93;;;;;;;;;;4981014;28;20022;-71
2022/08/31 06:43:22;;;;;;;2.97;0.90;;;;;;;;;;4981380;28;20105;-71
2022/08/31 06:45:48;;;;;;;3.90;0.63;;;;;;;;;;4982150;28;20097;-72
2022/08/31 06:48:14;;;;;;;2.00;0.70;;;;;;;;;;4983322;28;20050;-71
2022/08/31 06:50:41;;;;;;;2.97;0.85;;;;;;;;;;4982006;28;20757;-70
2022/08/31 06:53:08;;;;;;;3.88;0.88;;;;;;;;;;4982666;28;20076;-72
2022/08/31 06:55:34;;;;;;;2.28;0.90;;;;;;;;;;4980417;28;20448;-72
2022/08/31 06:58:02;;;;;;;3.40;0.90;;;;;;;;;;4982203;28;20775;-71
2022/08/31 07:00:32;;;;;;;3.08;0.80;;;;;;;;;;4984578;28;20033;-74
2022/08/31 07:02:58;;;;;;;;;;;;;;;;;;4987115;28;20022;-71
2022/08/31 07:05:44;;;;;;;5.80;1.13;;;;;;;;;;4991269;28;19913;-71
2022/08/31 07:08:10;;;;;;;4.90;1.15;;;;;;;;;;4984477;28;20076;-71
2022/08/31 07:10:36;;;;;;;3.83;0.50;;;;;;;;;;4978574;28;20481;-71
2022/08/31 07:13:02;;;;;;;2.22;0.80;;;;;;;;;;4980650;28;20031;-71
2022/08/31 07:15:28;;;;;;;2.33;1.00;;;;;;;;;;4989856;28;20152;-71
2022/08/31 07:17:54;;;;;;;3.70;0.75;;;;;;;;;;4986073;28;20148;-72
2022/08/31 07:20:21;;;;;;;2.55;0.70;;;;;;;;;;4985983;28;20608;-73
2022/08/31 07:22:47;;;;;;;5.22;0.98;;;;;;;;;;4977442;28;20069;-71
2022/08/31 07:25:16;;;;;;;3.40;0.80;;;;;;;;;;4976931;28;20173;-74
2022/08/31 07:27:43;;;;;;;4.00;1.27;;;;;;;;;;4975545;28;20771;-72
2022/08/31 07:30:09;;;;;;;2.72;0.75;;;;;;;;;;4973421;28;20070;-73
2022/08/31 07:32:37;;;;;;;2.85;0.95;;;;;;;;;;4978514;28;20054;-74
2022/08/31 07:35:04;;;;;;;3.42;0.95;;;;;;;;;;4977090;28;20076;-72
2022/08/31 07:43:03;;;;;;;2.83;0.90;;;;;;;;;;4974835;28;20038;-72
2022/08/31 07:45:29;;;;;;;4.07;1.10;;;;;;;;;;4978966;28;20080;-73
2022/08/31 07:47:58;;;;;;;1.60;0.60;;;;;;;;;;4978546;28;20053;-72
2022/08/31 07:50:26;;;;;;;3.83;1.10;;;;;;;;;;4975664;28;20470;-73
2022/08/31 07:52:54;;;;;;;3.40;1.17;;;;;;;;;;4976801;28;20090;-74
2022/08/31 07:55:22;;;;;;;4.68;0.70;;;;;;;;;;4976372;28;20030;-74
2022/08/31 07:57:49;;;;;;;2.63;0.85;;;;;;;;;;4963753;28;20502;-75
2022/08/31 08:00:20;;;;;;;5.47;0.90;;;;;;;;;;4980288;28;20089;-71
2022/08/31 08:02:46;;;;;;;2.63;1.02;;;;;;;;;;4974503;28;20555;-73
2022/08/31 08:05:20;;;;;;;7.00;1.15;;;;;;;;;;4979463;28;20121;-73
2022/08/31 08:07:47;;;;;;;6.90;0.95;;;;;;;;;;4979191;28;20652;-72
2022/08/31 08:10:15;;;;;;;4.40;0.95;;;;;;;;;;4975374;28;20800;-72
2022/08/31 08:12:41;;;;;;;4.63;1.02;;;;;;;;;;4977977;28;20034;-71
2022/08/31 08:15:08;;;;;;;3.72;0.95;;;;;;;;;;4976683;28;20067;-70
2022/08/31 08:17:34;;;;;;;2.40;0.60;;;;;;;;;;4978053;28;20030;-69
2022/08/31 08:20:00;;;;;;;3.53;0.90;;;;;;;;;;4974015;28;20085;-72
2022/08/31 08:22:26;;;;;;;2.53;0.77;;;;;;;;;;4961304;28;20112;-73
2022/08/31 08:24:54;;;;;;;3.03;0.90;;;;;;;;;;4977199;28;20098;-76
2022/08/31 08:27:20;;;;;;;3.42;0.98;;;;;;;;;;4977196;28;20054;-72
2022/08/31 08:29:47;;;;;;;2.15;0.85;;;;;;;;;;4974035;28;20116;-73
2022/08/31 08:32:13;;;;;;;6.00;0.90;;;;;;;;;;4975189;28;20038;-75
2022/08/31 08:34:42;;;;;;;3.83;1.00;;;;;;;;;;4972903;28;20098;-73
2022/08/31 08:37:09;;;;;;;2.10;0.88;;;;;;;;;;4976470;28;20187;-72
2022/08/31 08:39:36;;;;;;;1.90;0.60;;;;;;;;;;4976391;28;20117;-72
2022/08/31 08:42:02;;;;;;;1.65;0.70;;;;;;;;;;4975675;28;20633;-72
2022/08/31 08:44:31;;;;;;;4.63;0.93;;;;;;;;;;4972950;28;20039;-73
2022/08/31 08:46:59;;;;;;;4.68;1.25;;;;;;;;;;4956062;28;20516;-72
2022/08/31 08:49:26;;;;;;;2.25;0.80;;;;;;;;;;4974677;28;20034;-71
2022/08/31 08:51:54;;;;;;;3.10;0.80;;;;;;;;;;4976283;28;20053;-73
2022/08/31 08:54:26;;;;;;;2.97;0.85;;;;;;;;;;4981055;28;20034;-72
2022/08/31 08:56:52;;;;;;;1.40;0.60;;;;;;;;;;4977708;28;20076;-73
2022/08/31 08:59:18;;;;;;;3.63;0.90;;;;;;;;;;4977368;28;20037;-74
2022/08/31 09:01:46;;;;;;;1.30;0.70;;;;;;;;;;4974931;28;20058;-74
2022/08/31 09:04:15;;;;;;;2.40;0.60;;;;;;;;;;4976601;28;20077;-74
2022/08/31 09:06:42;;;;;;;4.05;1.02;;;;;;;;;;4976297;28;20031;-72
2022/08/31 09:09:19;;;;;;;1.58;0.60;;;;;;;;;;4975601;28;20094;-72
2022/08/31 09:11:48;;;;;;;1.77;0.52;;;;;;;;;;4971517;28;20952;-70
2022/08/31 09:14:21;;;;;;;1.95;0.85;;;;;;;;;;4977933;28;20124;-72
2022/08/31 09:16:58;;;;;;;2.15;0.75;;;;;;;;;;4973659;28;20050;-73
2022/08/31 09:19:24;;;;;;;2.10;0.77;;;;;;;;;;4978825;28;20077;-72
2022/08/31 09:21:57;;;;;;;2.50;0.80;;;;;;;;;;4976270;28;20077;-72
2022/08/31 09:24:28;;;;;;;1.50;0.82;;;;;;;;;;4968404;28;20038;-72
2022/08/31 09:27:17;;;;;;;1.27;0.55;;;;;;;;;;4972273;28;20031;-73
2022/08/31 09:30:12;;;;;;;2.20;0.52;;;;;;;;;;4978451;28;20133;-71
2022/08/31 09:32:39;;;;;;;1.40;0.65;;;;;;;;;;4964557;28;20468;-74
2022/08/31 09:35:07;;;;;;;1.80;0.98;;;;;;;;;;4978440;28;20065;-73
2022/08/31 09:37:44;;;;;;;2.28;0.90;;;;;;;;;;4978314;28;20030;-73
2022/08/31 09:40:16;;;;;;;1.73;0.77;;;;;;;;;;4972813;28;20046;-73
2022/08/31 09:42:44;;;;;;;1.95;0.70;;;;;;;;;;4977414;28;20516;-73
2022/08/31 09:45:17;;;;;;;2.63;1.10;;;;;;;;;;4974964;28;20042;-74
2022/08/31 09:48:00;;;;;;;1.83;0.63;;;;;;;;;;4972548;28;20057;-72
2022/08/31 09:50:46;;;;;;;1.95;0.57;;;;;;;;;;4972213;28;20038;-72
2022/08/31 09:56:12;;;;;;;1.95;0.75;;;;;;;;;;4976431;28;20116;-71
2022/08/31 09:58:40;;;;;;;1.30;0.57;;;;;;;;;;4972740;28;20097;-72
2022/08/31 10:01:12;;;;;;;2.63;0.70;;;;;;;;;;4979547;28;20026;-72
2022/08/31 10:03:43;;;;;;;1.05;0.65;;;;;;;;;;4976463;28;20027;-72
2022/08/31 10:06:22;;;;;;;1.67;0.77;;;;;;;;;;4976803;28;20026;-72
2022/08/31 10:08:55;;;;;;;3.63;0.77;;;;;;;;;;4955387;28;20438;-74
2022/08/31 10:11:22;;;;;;;3.60;0.73;;;;;;;;;;4972167;28;20030;-75
2022/08/31 10:13:59;;;;;;;1.27;0.60;;;;;;;;;;4979660;28;20174;-74
2022/08/31 10:16:31;;;;;;;2.33;0.90;;;;;;;;;;4984734;28;20124;-75
2022/08/31 10:19:15;;;;;;;2.03;0.85;;;;;;;;;;4996559;28;20065;-74
2022/08/31 10:21:50;;;;;;;1.70;0.60;;;;;;;;;;4976345;28;20046;-75
2022/08/31 10:24:32;;;;;;;2.15;0.60;;;;;;;;;;4975350;28;20118;-76
2022/08/31 10:27:04;;;;;;;3.97;0.52;;;;;;;;;;4976696;28;20038;-73
2022/08/31 10:29:48;;;;;;;2.47;0.80;;;;;;;;;;4976231;28;20386;-74
2022/08/31 10:32:29;;;;;;;3.67;0.82;;;;;;;;;;4977677;28;20026;-74
2022/08/31 10:35:06;;;;;;;2.55;0.60;;;;;;;;;;4974073;28;20034;-73
2022/08/31 10:37:36;;;;;;;2.33;0.57;;;;;;;;;;4974129;28;20121;-73
2022/08/31 10:40:03;;;;;;;;;;;;;;;;;;4977123;28;20491;-73
2022/08/31 10:42:36;;;;;;;1.58;0.60;;;;;;;;;;4976120;28;20889;-74
2022/08/31 10:45:23;;;;;;;2.53;0.50;;;;;;;;;;4954118;28;20057;-73
2022/08/31 10:47:51;;;;;;;3.45;1.02;;;;;;;;;;4975623;28;20843;-74
2022/08/31 10:50:43;;;;;;;2.25;0.70;;;;;;;;;;4976537;28;20058;-74
2022/08/31 10:53:31;;;;;;;2.08;0.80;;;;;;;;;;4970478;28;20050;-73
2022/08/31 10:56:13;;;;;;;2.10;0.75;;;;;;;;;;4958070;28;20031;-73
2022/08/31 10:58:57;;;;;;;3.85;0.80;;;;;;;;;;4978854;28;20531;-72
2022/08/31 11:01:25;;;;;;;3.03;0.88;;;;;;;;;;4989335;28;20611;-75
2022/08/31 11:04:10;;;;;;;1.65;0.63;;;;;;;;;;4985414;28;20493;-73
2022/08/31 11:06:47;;;;;;;1.65;0.80;;;;;;;;;;4981141;28;20109;-74
2022/08/31 11:09:22;;;;;;;3.42;0.85;;;;;;;;;;4984913;28;20946;-73
2022/08/31 11:12:05;;;;;;;2.25;0.68;;;;;;;;;;4985932;28;20057;-73
2022/08/31 11:14:32;;;;;;;1.90;0.50;;;;;;;;;;4985877;28;20057;-74
2022/08/31 11:17:07;;;;;;;2.65;0.70;;;;;;;;;;4979491;28;20034;-73
2022/08/31 11:19:37;;;;;;;2.13;0.60;;;;;;;;;;4991673;28;20033;-74
2022/08/31 11:22:04;;;;;;;1.60;0.70;;;;;;;;;;4981979;28;20076;-74
2022/08/31 11:24:48;;;;;;;2.58;0.70;;;;;;;;;;4983278;28;20045;-72
2022/08/31 11:27:35;;;;;;;1.52;0.60;;;;;;;;;;4977911;28;20062;-72
2022/08/31 11:30:06;;;;;;;0.88;0.50;;;;;;;;;;4977198;28;20620;-70
2022/08/31 11:32:45;;;;;;;2.90;0.88;;;;;;;;;;4978717;28;20048;-72
2022/08/31 11:35:14;;;;;;;2.15;0.73;;;;;;;;;;4975096;28;20065;-72
2022/08/31 11:37:51;;;;;;;3.95;0.60;;;;;;;;;;4978270;28;20027;-73
2022/08/31 11:40:42;;;;;;;1.58;0.60;;;;;;;;;;4980657;28;20034;-73
2022/08/31 11:43:08;;;;;;;2.58;1.00;;;;;;;;;;4980154;28;20784;-73
2022/08/31 11:45:36;;;;;;;3.67;0.90;;;;;;;;;;4978114;28;20533;-73
2022/08/31 11:48:02;;;;;;;4.50;0.85;;;;;;;;;;4975157;28;20078;-73
2022/08/31 11:50:31;;;;;;;1.63;0.60;;;;;;;;;;4981896;28;20489;-73
2022/08/31 11:52:59;;;;;;;1.65;0.52;;;;;;;;;;4978132;28;20061;-74
2022/08/31 11:55:29;;;;;;;2.85;0.60;;;;;;;;;;4974173;28;20413;-72
2022/08/31 11:58:05;;;;;;;3.28;0.70;;;;;;;;;;4972690;28;20093;-73
2022/08/31 12:00:45;;;;;;;2.53;0.77;;;;;;;;;;4972913;28;20523;-72
2022/08/31 12:03:30;;;;;;;2.60;0.77;;;;;;;;;;4975328;28;20023;-72
2022/08/31 12:05:56;;;;;;;2.08;1.02;;;;;;;;;;4975044;28;20093;-71
2022/08/31 12:08:24;;;;;;;1.30;0.63;;;;;;;;;;4975534;28;20041;-71
2022/08/31 12:10:56;;;;;;;4.05;0.88;;;;;;;;;;4973739;28;20041;-72
2022/08/31 12:13:26;;;;;;;3.78;0.80;;;;;;;;;;4976246;28;20501;-72
2022/08/31 12:16:02;;;;;;;3.25;0.90;;;;;;;;;;4974662;28;20026;-73
2022/08/31 12:18:32;;;;;;;3.78;1.00;;;;;;;;;;4974215;28;20034;-72
2022/08/31 12:23:50;;;;;;;1.52;0.75;;;;;;;;;;4982130;28;20038;-72
2022/08/31 12:26:17;;;;;;;2.78;0.80;;;;;;;;;;4979023;28;20405;-72
2022/08/31 12:28:49;;;;;;;2.10;0.70;;;;;;;;;;4974963;28;20035;-71
2022/08/31 12:31:17;;;;;;;3.28;0.70;;;;;;;;;;4972175;28;20085;-72
2022/08/31 12:34:03;;;;;;;6.32;0.88;;;;;;;;;;4978635;28;20019;-72
2022/08/31 12:36:31;;;;;;;1.95;0.80;;;;;;;;;;4959787;28;20034;-73
2022/08/31 12:39:06;;;;;;;2.85;0.80;;;;;;;;;;4976718;28;20038;-72
2022/08/31 12:41:33;;;;;;;1.98;0.60;;;;;;;;;;4971683;28;20097;-73
2022/08/31 12:43:59;;;;;;;3.97;1.00;;;;;;;;;;4975596;28;20042;-73
2022/08/31 12:46:33;;;;;;;2.13;0.70;;;;;;;;;;4975970;28;20064;-73
2022/08/31 12:48:59;;;;;;;3.13;1.02;;;;;;;;;;4962445;28;20434;-74
2022/08/31 12:51:28;;;;;;;2.35;0.73;;;;;;;;;;4976689;28;20477;-76
2022/08/31 12:54:13;;;;;;;5.78;0.88;;;;;;;;;;4958422;28;20105;-74
2022/08/31 12:56:39;;;;;;;2.00;0.80;;;;;;;;;;4975432;28;20018;-73
2022/08/31 12:59:14;;;;;;;2.40;0.80;;;;;;;;;;4976199;28;20023;-73
2022/08/31 13:01:43;;;;;;;3.00;0.70;;;;;;;;;;4975852;28;20057;-74
2022/08/31 13:04:09;;;;;;;1.77;0.80;;;;;;;;;;4977438;28;20038;-74
2022/08/31 13:06:37;;;;;;;1.20;0.63;;;;;;;;;;4974855;28;20034;-74
2022/08/31 13:09:04;;;;;;;1.70;0.68;;;;;;;;;;4973417;28;20062;-75
2022/08/31 13:11:34;;;;;;;3.08;0.98;;;;;;;;;;4973584;28;20053;-73
2022/08/31 13:14:26;;;;;;;1.95;0.80;;;;;;;;;;4976882;28;20067;-74
2022/08/31 13:17:00;;;;;;;1.65;0.60;;;;;;;;;;4972517;28;20039;-76
2022/08/31 13:19:28;;;;;;;2.50;0.90;;;;;;;;;;4977701;28;20525;-76
2022/08/31 13:22:06;;;;;;;1.60;0.60;;;;;;;;;;4979226;28;20053;-75
2022/08/31 13:24:40;;;;;;;2.13;0.60;;;;;;;;;;4978921;28;20037;-74
2022/08/31 13:27:21;;;;;;;3.05;0.63;;;;;;;;;;4978292;28;20049;-77
2022/08/31 13:29:48;;;;;;;1.90;0.90;;;;;;;;;;4978161;28;20065;-75
2022/08/31 13:32:29;;;;;;;2.50;0.40;;;;;;;;;;4975453;28;20104;-75
2022/08/31 13:34:56;;;;;;;2.83;0.80;;;;;;;;;;4974624;28;20027;-75
2022/08/31 13:37:28;;;;;;;2.13;0.80;;;;;;;;;;4955432;28;20804;-76
2022/08/31 13:39:55;;;;;;;1.50;0.68;;;;;;;;;;4970814;28;20561;-74
2022/08/31 13:42:23;;;;;;;5.22;0.75;;;;;;;;;;4971485;28;20137;-74
2022/08/31 13:44:57;;;;;;;5.68;0.82;;;;;;;;;;4972514;28;20118;-75
2022/08/31 13:47:28;;;;;;;1.48;0.68;;;;;;;;;;4971638;28;20042;-76
2022/08/31 13:50:07;;;;;;;2.95;0.70;;;;;;;;;;4977628;28;20504;-75
2022/08/31 13:52:35;;;;;;;1.85;0.70;;;;;;;;;;4983291;28;20069;-75
2022/08/31 13:55:03;;;;;;;3.08;0.70;;;;;;;;;;4978481;28;20061;-78
2022/08/31 13:57:29;;;;;;;9.02;1.80;;;;;;;;;;4977310;28;20019;-78
2022/08/31 14:00:01;;;;;;;4.38;1.02;;;;;;;;;;4975518;28;20529;-78
2022/08/31 14:02:29;;;;;;;4.25;1.23;;;;;;;;;;4974612;28;20027;-77
2022/08/31 14:05:03;;;;;;;4.63;1.30;;;;;;;;;;4977265;28;20127;-77
2022/08/31 14:07:39;;;;;;;3.70;1.00;;;;;;;;;;4978652;28;22964;-79
2022/08/31 14:10:18;;;;;;;3.17;0.70;;;;;;;;;;4973654;28;20038;-77
2022/08/31 14:12:44;;;;;;;3.00;1.02;;;;;;;;;;4974099;28;20137;-77
2022/08/31 14:15:34;;;;;;;3.88;1.08;;;;;;;;;;4975121;28;20603;-76
2022/08/31 14:18:08;;;;;;;5.60;1.20;;;;;;;;;;4973439;28;20050;-76
2022/08/31 14:20:36;;;;;;;4.95;1.75;;;;;;;;;;4982088;28;20098;-78
2022/08/31 14:23:23;;;;;;;2.65;1.05;;;;;;;;;;4982204;28;20031;-76
2022/08/31 14:25:51;;;;;;;2.80;0.95;;;;;;;;;;4980633;28;20034;-76
2022/08/31 14:28:17;;;;;;;3.83;1.00;;;;;;;;;;4981004;28;20038;-76
2022/08/31 14:30:43;;;;;;;4.68;1.00;;;;;;;;;;4981939;28;20031;-77
2022/08/31 14:33:16;;;;;;;2.83;0.80;;;;;;;;;;4976958;28;20070;-77
2022/08/31 14:35:43;;;;;;;3.88;1.00;;;;;;;;;;4978358;28;20032;-77
2022/08/31 14:38:14;;;;;;;4.05;1.20;;;;;;;;;;4977845;28;20022;-76
2022/08/31 14:40:42;;;;;;;3.40;0.90;;;;;;;;;;4980836;28;20026;-76
2022/08/31 14:43:14;;;;;;;2.95;1.38;;;;;;;;;;4982849;28;20027;-78
2022/08/31 14:45:43;;;;;;;4.03;0.90;;;;;;;;;;4977683;28;20045;-76
2022/08/31 14:48:09;;;;;;;4.60;1.42;;;;;;;;;;4978794;28;20179;-75
2022/08/31 14:50:36;;;;;;;6.82;1.35;;;;;;;;;;4964688;28;20042;-78
2022/08/31 14:53:02;;;;;;;3.90;1.08;;;;;;;;;;4981524;28;20019;-78
2022/08/31 14:55:31;;;;;;;5.05;1.48;;;;;;;;;;4985657;28;20047;-76
2022/08/31 14:58:00;;;;;;;8.52;1.65;;;;;;;;;;4982534;28;20027;-76
2022/08/31 15:00:30;;;;;;;3.25;0.90;;;;;;;;;;4981736;28;20108;-76
2022/08/31 15:02:56;;;;;;;4.38;0.93;;;;;;;;;;4979021;28;20022;-76
2022/08/31 15:05:23;;;;;;;4.32;1.33;;;;;;;;;;4977899;28;20064;-76
2022/08/31 15:07:51;;;;;;;1.65;0.90;;;;;;;;;;4975131;28;20027;-76
2022/08/31 15:10:19;;;;;;;3.65;1.08;;;;;;;;;;4985605;28;20030;-76